Terminal Aerodrome Forecast
Issued by NWS

Home | Current Version | Previous Version | Text Only | Print | Product List | Glossary On
Versions: 1 2 3 4 5 6 7 8 9 10 11 12
541
FTPA31 PHFO 061734
TAFHLI
TAF
PHLI 061734Z 0618/0718 28006KT P6SM FEW030 FEW045
     FM062100 VRB05KT P6SM SCT025
     FM070300 35012KT P6SM VCSH SCT013 BKN025 OVC050
     FM070500 36017G25KT 5SM -RA BKN013 OVC030
     FM071000 01013KT P6SM VCSH FEW022 BKN050=

USA.gov is the U.S. government's official web portal to all federal, state and local government web resources and services.